Masonic Home, Kentucky
Current Conditions -  °F | °C
As of 9:56 PM on Tuesday 21 Oct 2014 (Local Time) from KSDF Reporting Station
Overcast Overcast  
Wind Chill: 56°   Ceiling: 5500
Heat Index: 56°   Visibility: 10mi
Dew Point: 42°   Wind: 8mph
Humidity: 60%   Direction: 360°N
Pressure: 30.14"   Gusts: NA
Location:  38.25°N, 85.76°W
Report Text: KSDF 220156Z 36007KT 10SM BKN055 OVC250 13/06 A3014 RMK AO2 SLP206 T01330056
Loading
Personal Weather Stations






























Interactive Weather Map
Tropical Storm Tracking
New forecast layout! Learn more

10-Day Weather Forecast

Advertisements
Track Severe Weather on mobile